createdAt,value
2022-11-05T00:01:14.381Z,8.13
2022-11-05T00:04:01.237Z,8.18
2022-11-05T00:06:48.372Z,8.20
2022-11-05T00:09:32.955Z,8.22
2022-11-05T00:12:29.648Z,8.25
2022-11-05T00:15:17.427Z,8.22
2022-11-05T00:17:45.642Z,8.18
2022-11-05T00:20:14.174Z,8.16
2022-11-05T00:23:01.410Z,8.13
2022-11-05T00:25:30.641Z,8.07
2022-11-05T00:28:03.994Z,8.04
2022-11-05T00:30:32.746Z,8.01
2022-11-05T00:33:04.785Z,7.98
2022-11-05T00:35:33.254Z,7.95
2022-11-05T00:38:01.439Z,7.95
2022-11-05T00:40:30.597Z,7.96
2022-11-05T00:43:17.610Z,7.98
2022-11-05T00:45:45.953Z,8.01
2022-11-05T00:48:32.869Z,8.05
2022-11-05T00:51:01.209Z,8.11
2022-11-05T00:53:29.566Z,8.12
2022-11-05T00:55:58.478Z,8.07
2022-11-05T00:58:30.287Z,8.03
2022-11-05T01:01:00.975Z,8.03
2022-11-05T01:03:32.915Z,8.01
2022-11-05T01:06:09.493Z,8.03
2022-11-05T01:08:38.028Z,8.05
2022-11-05T01:11:33.734Z,8.05
2022-11-05T01:14:05.448Z,8.05
2022-11-05T01:16:34.085Z,8.05
2022-11-05T01:19:04.152Z,8.04
2022-11-05T01:21:33.299Z,8.05
2022-11-05T01:24:03.339Z,8.06
2022-11-05T01:26:33.297Z,8.08
2022-11-05T01:29:01.665Z,8.10
2022-11-05T01:31:30.237Z,8.13
2022-11-05T01:34:02.020Z,8.17
2022-11-05T01:36:31.857Z,8.22
2022-11-05T01:39:00.293Z,8.28
2022-11-05T01:41:28.593Z,8.36
2022-11-05T01:44:00.430Z,8.42
2022-11-05T01:46:43.820Z,8.44
2022-11-05T01:49:18.207Z,8.38
2022-11-05T01:51:48.404Z,8.35
2022-11-05T01:54:22.180Z,8.35
2022-11-05T01:56:57.931Z,8.37
2022-11-05T01:59:38.408Z,8.37
2022-11-05T02:02:09.062Z,8.36
2022-11-05T02:04:50.534Z,8.38
2022-11-05T02:07:19.850Z,8.39
2022-11-05T02:10:06.239Z,8.38
2022-11-05T02:12:38.111Z,8.38
2022-11-05T02:15:07.139Z,8.36
2022-11-05T02:18:01.018Z,8.33
2022-11-05T02:20:35.600Z,8.35
2022-11-05T02:23:43.100Z,8.37
2022-11-05T02:26:32.937Z,8.36
2022-11-05T02:29:35.941Z,8.38
2022-11-05T02:32:38.972Z,8.42
2022-11-05T02:35:27.848Z,8.46
2022-11-05T02:38:10.190Z,8.50
2022-11-05T02:40:55.194Z,8.48
2022-11-05T02:43:44.888Z,8.50
2022-11-05T02:46:30.269Z,8.56
2022-11-05T02:49:07.865Z,8.57
2022-11-05T02:51:57.217Z,8.52
2022-11-05T02:54:54.566Z,8.47
2022-11-05T02:57:22.794Z,8.39
2022-11-05T03:00:02.033Z,8.35
2022-11-05T03:02:30.748Z,8.32
2022-11-05T03:05:01.329Z,8.29
2022-11-05T03:07:56.545Z,8.26
2022-11-05T03:10:35.896Z,8.23
2022-11-05T03:13:28.257Z,8.23
2022-11-05T03:16:55.120Z,8.23
2022-11-05T03:19:26.323Z,8.24
2022-11-05T03:22:00.840Z,8.24
2022-11-05T03:24:35.812Z,8.23
2022-11-05T03:27:12.139Z,8.23
2022-11-05T03:29:49.828Z,8.18
2022-11-05T03:32:21.490Z,8.09
2022-11-05T03:35:01.629Z,8.09
2022-11-05T03:37:36.346Z,8.12
2022-11-05T03:40:08.944Z,8.15
2022-11-05T03:42:41.206Z,8.13
2022-11-05T03:45:15.016Z,8.13
2022-11-05T03:47:46.471Z,8.16
2022-11-05T03:50:22.525Z,8.20
2022-11-05T03:52:59.827Z,8.21
2022-11-05T03:55:36.762Z,8.20
2022-11-05T03:58:06.771Z,8.20
2022-11-05T04:00:35.589Z,8.19
2022-11-05T04:03:03.856Z,8.19
2022-11-05T04:05:32.264Z,8.14
2022-11-05T04:08:19.266Z,8.04
2022-11-05T04:11:06.721Z,7.96
2022-11-05T04:13:36.116Z,7.95
2022-11-05T04:16:34.379Z,7.99
2022-11-05T04:19:02.756Z,8.02
2022-11-05T04:21:49.767Z,8.04
2022-11-05T04:24:18.378Z,8.11
2022-11-05T04:26:47.668Z,8.18
2022-11-05T04:29:34.667Z,8.21
2022-11-05T04:32:03.183Z,8.25
2022-11-05T04:34:31.667Z,8.27
2022-11-05T04:37:00.357Z,8.30
2022-11-05T04:39:29.345Z,8.33
2022-11-05T04:41:58.198Z,8.29
2022-11-05T04:44:27.203Z,8.25
2022-11-05T04:46:57.243Z,8.26
2022-11-05T04:49:25.731Z,8.20
2022-11-05T04:51:54.308Z,8.16
2022-11-05T04:54:22.946Z,8.17
2022-11-05T04:56:52.233Z,8.17
2022-11-05T04:59:22.918Z,8.17
2022-11-05T05:01:53.373Z,8.17
2022-11-05T05:04:24.187Z,8.18
2022-11-05T05:06:54.251Z,8.20
2022-11-05T05:09:23.793Z,8.24
2022-11-05T05:11:52.695Z,8.28
2022-11-05T05:14:21.427Z,8.30
2022-11-05T05:16:50.492Z,8.31
2022-11-05T05:19:19.253Z,8.32
2022-11-05T05:21:48.140Z,8.35
2022-11-05T05:24:19.669Z,8.37
2022-11-05T05:26:50.500Z,8.39
2022-11-05T05:29:19.489Z,8.42
2022-11-05T05:31:47.829Z,8.43
2022-11-05T05:34:16.574Z,8.43
2022-11-05T05:36:45.521Z,8.42
2022-11-05T05:39:14.429Z,8.40
2022-11-05T05:41:43.326Z,8.38
2022-11-05T05:44:12.148Z,8.37
2022-11-05T05:46:41.061Z,8.31
2022-11-05T05:49:12.638Z,8.25
2022-11-05T05:51:41.388Z,8.25
2022-11-05T05:54:12.338Z,8.24
2022-11-05T05:56:43.452Z,8.27
2022-11-05T05:59:13.195Z,8.30
2022-11-05T06:01:42.244Z,8.31
2022-11-05T06:04:11.178Z,8.36
2022-11-05T06:06:40.212Z,8.40
2022-11-05T06:09:10.044Z,8.43
2022-11-05T06:11:39.487Z,8.52
2022-11-05T06:14:13.352Z,8.58
2022-11-05T06:16:41.708Z,8.63
2022-11-05T06:19:10.368Z,8.69
2022-11-05T06:21:38.948Z,8.75
2022-11-05T06:24:10.657Z,8.81
2022-11-05T06:26:43.171Z,8.87
2022-11-05T06:29:11.194Z,8.92
2022-11-05T06:31:39.589Z,8.95
2022-11-05T06:34:07.946Z,8.99
2022-11-05T06:36:35.964Z,9.04
2022-11-05T06:39:04.442Z,9.07
2022-11-05T06:41:45.652Z,9.13
2022-11-05T06:44:21.596Z,9.20
2022-11-05T06:46:49.866Z,9.26
2022-11-05T06:49:18.107Z,9.34
2022-11-05T06:51:46.248Z,9.41
2022-11-05T06:54:14.361Z,9.51
2022-11-05T06:56:42.871Z,9.57
2022-11-05T06:59:11.100Z,9.62
2022-11-05T07:01:39.394Z,9.68
2022-11-05T07:04:07.938Z,9.75
2022-11-05T07:06:37.230Z,9.80
2022-11-05T07:09:05.704Z,9.81
2022-11-05T07:11:34.034Z,9.83
2022-11-05T07:14:02.510Z,9.83
2022-11-05T07:16:31.396Z,9.80
2022-11-05T07:19:00.025Z,9.79
2022-11-05T07:21:28.813Z,9.80
2022-11-05T07:23:57.049Z,9.81
2022-11-05T07:26:27.416Z,9.85
2022-11-05T07:28:59.020Z,9.90
2022-11-05T07:31:27.332Z,9.98
2022-11-05T07:33:55.861Z,10.04
2022-11-05T07:36:24.278Z,10.09
2022-11-05T07:38:58.928Z,10.17
2022-11-05T07:41:29.938Z,10.22
2022-11-05T07:43:58.959Z,10.26
2022-11-05T07:46:27.340Z,10.29
2022-11-05T07:48:55.696Z,10.29
2022-11-05T07:51:24.153Z,10.30
2022-11-05T07:53:52.444Z,10.33
2022-11-05T07:56:20.651Z,10.36
2022-11-05T07:58:49.383Z,10.37
2022-11-05T08:01:18.155Z,10.40
2022-11-05T08:03:46.580Z,10.43
2022-11-05T08:06:15.051Z,10.46
2022-11-05T08:08:43.441Z,10.50
2022-11-05T08:11:12.637Z,10.54
2022-11-05T08:13:43.037Z,10.59
2022-11-05T08:16:11.263Z,10.65
2022-11-05T08:18:39.952Z,10.72
2022-11-05T08:21:09.721Z,10.82
2022-11-05T08:23:39.700Z,10.91
2022-11-05T08:26:07.832Z,11.00
2022-11-05T08:28:36.314Z,11.07
2022-11-05T08:31:04.944Z,11.15
2022-11-05T08:33:35.162Z,11.23
2022-11-05T08:36:04.834Z,11.31
2022-11-05T08:38:33.310Z,11.40
2022-11-05T08:41:01.678Z,11.50
2022-11-05T08:43:29.988Z,11.54
2022-11-05T08:46:01.491Z,11.60
2022-11-05T08:48:29.698Z,11.66
2022-11-05T08:51:00.609Z,11.75
2022-11-05T08:53:28.957Z,11.88
2022-11-05T08:56:00.834Z,12.02
2022-11-05T08:58:29.391Z,12.16
2022-11-05T09:01:03.428Z,12.22
2022-11-05T09:03:32.922Z,12.26
2022-11-05T09:06:01.388Z,12.28
2022-11-05T09:08:30.215Z,12.31
2022-11-05T09:10:58.912Z,12.38
2022-11-05T09:13:27.621Z,12.46
2022-11-05T09:15:59.336Z,12.54
2022-11-05T09:18:28.293Z,12.56
2022-11-05T09:20:56.598Z,12.59
2022-11-05T09:23:24.751Z,12.63
2022-11-05T09:25:52.921Z,12.70
2022-11-05T09:28:22.938Z,12.80
2022-11-05T09:30:52.967Z,12.83
2022-11-05T09:33:24.940Z,12.84
2022-11-05T09:35:53.833Z,12.83
2022-11-05T09:38:22.268Z,12.84
2022-11-05T09:41:23.062Z,12.81
2022-11-05T09:43:56.927Z,12.81
2022-11-05T09:46:28.392Z,12.81
2022-11-05T09:49:24.668Z,12.83
2022-11-05T09:51:55.797Z,12.89
2022-11-05T09:54:28.640Z,12.98
2022-11-05T09:56:57.141Z,13.08
2022-11-05T09:59:51.177Z,13.15
2022-11-05T10:02:34.004Z,13.25
2022-11-05T10:05:10.431Z,13.36
2022-11-05T10:08:03.689Z,13.45
2022-11-05T10:10:47.807Z,13.54
2022-11-05T10:14:01.495Z,13.63
2022-11-05T10:16:36.171Z,13.71
2022-11-05T10:19:17.394Z,13.79
2022-11-05T10:22:05.698Z,13.97
2022-11-05T10:24:34.775Z,14.12
2022-11-05T10:27:05.104Z,14.20
2022-11-05T10:29:35.179Z,14.25
2022-11-05T10:32:06.249Z,14.28
2022-11-05T10:34:38.842Z,14.31
2022-11-05T10:37:07.490Z,14.36
2022-11-05T10:39:35.788Z,14.37
2022-11-05T10:42:23.471Z,14.36
2022-11-05T10:44:55.280Z,14.37
2022-11-05T10:47:38.688Z,14.36
2022-11-05T10:50:18.835Z,14.39
2022-11-05T10:52:58.811Z,14.43
2022-11-05T10:55:36.784Z,14.52
2022-11-05T10:58:17.468Z,14.60
2022-11-05T11:00:49.826Z,14.70
2022-11-05T11:03:40.051Z,14.79
2022-11-05T11:06:25.837Z,14.85
2022-11-05T11:08:57.586Z,14.89
2022-11-05T11:11:37.428Z,14.90
2022-11-05T11:14:10.188Z,14.96
2022-11-05T11:16:43.376Z,14.96
2022-11-05T11:19:32.337Z,14.98
2022-11-05T11:22:03.889Z,14.97
2022-11-05T11:24:42.146Z,14.95
2022-11-05T11:27:15.138Z,14.93
2022-11-05T11:29:49.712Z,14.91
2022-11-05T11:32:20.669Z,14.88
2022-11-05T11:34:54.872Z,14.87
2022-11-05T11:37:28.196Z,14.86
2022-11-05T11:40:02.658Z,14.86
2022-11-05T11:42:37.078Z,14.89
2022-11-05T11:45:27.158Z,14.93
2022-11-05T11:47:58.335Z,14.97
2022-11-05T11:50:41.989Z,15.03
2022-11-05T11:53:35.010Z,15.10
2022-11-05T11:56:13.715Z,15.18
2022-11-05T11:58:53.298Z,15.26
2022-11-05T12:01:24.879Z,15.33
2022-11-05T12:04:17.813Z,15.38
2022-11-05T12:06:55.393Z,15.42
2022-11-05T12:09:48.468Z,15.42
2022-11-05T12:12:21.785Z,15.42
2022-11-05T12:15:04.176Z,15.42
2022-11-05T12:17:48.056Z,15.45
2022-11-05T12:20:35.400Z,15.47
2022-11-05T12:23:25.309Z,15.47
2022-11-05T12:26:05.890Z,15.48
2022-11-05T12:32:03.384Z,15.54
2022-11-05T12:34:59.282Z,15.55
2022-11-05T12:37:39.464Z,15.57
2022-11-05T12:40:08.210Z,15.58
2022-11-05T12:42:58.776Z,15.57
2022-11-05T12:45:47.238Z,15.55
2022-11-05T12:48:41.419Z,15.50
2022-11-05T12:51:29.951Z,15.45
2022-11-05T12:54:07.499Z,15.42
2022-11-05T12:56:42.446Z,15.40
2022-11-05T12:59:17.331Z,15.34
2022-11-05T13:02:03.805Z,15.32
2022-11-05T13:04:50.351Z,15.32
2022-11-05T13:07:27.793Z,15.35
2022-11-05T13:10:03.922Z,15.34
2022-11-05T13:12:36.432Z,15.34
2022-11-05T13:15:25.073Z,15.32
2022-11-05T13:17:58.665Z,15.28
2022-11-05T13:20:38.915Z,15.23
2022-11-05T13:23:26.392Z,15.19
2022-11-05T13:26:04.044Z,15.14
2022-11-05T13:28:56.591Z,15.08
2022-11-05T13:31:34.370Z,15.03
2022-11-05T13:34:09.763Z,15.00
2022-11-05T13:36:56.713Z,14.97
2022-11-05T13:39:41.875Z,14.93
2022-11-05T13:42:44.693Z,14.87
2022-11-05T13:45:31.885Z,14.81
2022-11-05T13:48:28.774Z,14.78
2022-11-05T13:51:21.702Z,14.79
2022-11-05T13:54:04.453Z,14.79
2022-11-05T13:56:42.074Z,14.79
2022-11-05T13:59:31.514Z,14.80
2022-11-05T14:02:01.789Z,14.79
2022-11-05T14:04:43.693Z,14.78
2022-11-05T14:07:18.940Z,14.75
2022-11-05T14:09:56.719Z,14.70
2022-11-05T14:12:32.665Z,14.64
2022-11-05T14:15:18.239Z,14.60
2022-11-05T14:17:58.706Z,14.56
2022-11-05T14:20:33.463Z,14.52
2022-11-05T14:23:27.822Z,14.48
2022-11-05T14:26:11.710Z,14.43
2022-11-05T14:28:47.411Z,14.40
2022-11-05T14:31:19.275Z,14.35
2022-11-05T14:34:19.745Z,14.30
2022-11-05T14:37:12.156Z,14.24
2022-11-05T14:39:41.381Z,14.18
2022-11-05T14:42:27.669Z,14.14
2022-11-05T14:44:56.422Z,14.09
2022-11-05T14:47:30.403Z,14.03
2022-11-05T14:50:09.672Z,13.98
2022-11-05T14:52:40.830Z,13.93
2022-11-05T14:55:32.513Z,13.90
2022-11-05T14:58:04.639Z,13.87
2022-11-05T15:00:36.929Z,13.85
2022-11-05T15:03:42.551Z,13.83
2022-11-05T15:06:29.354Z,13.81
2022-11-05T15:09:07.741Z,13.80
2022-11-05T15:11:41.261Z,13.78
2022-11-05T15:14:29.144Z,13.74
2022-11-05T15:17:04.849Z,13.68
2022-11-05T15:19:37.461Z,13.63
2022-11-05T15:22:24.991Z,13.58
2022-11-05T15:24:53.437Z,13.53
2022-11-05T15:27:40.537Z,13.45
2022-11-05T15:30:21.907Z,13.37
2022-11-05T15:32:51.989Z,13.30
2022-11-05T15:35:27.182Z,13.25
2022-11-05T15:38:02.003Z,13.19
2022-11-05T15:40:33.373Z,13.13
2022-11-05T15:43:17.721Z,13.08
2022-11-05T15:46:04.382Z,13.02
2022-11-05T15:48:34.028Z,12.97
2022-11-05T15:51:02.848Z,12.93
2022-11-05T15:56:49.366Z,12.87
2022-11-05T15:59:23.804Z,12.86
2022-11-05T16:02:24.394Z,12.87
2022-11-05T16:04:53.223Z,12.87
2022-11-05T16:07:22.214Z,12.88
2022-11-05T16:09:57.388Z,12.87
2022-11-05T16:12:32.547Z,12.83
2022-11-05T16:15:20.347Z,12.79
2022-11-05T16:17:55.397Z,12.76
2022-11-05T16:20:33.098Z,12.73
2022-11-05T16:23:07.445Z,12.69
2022-11-05T16:25:39.531Z,12.65
2022-11-05T16:28:24.693Z,12.60
2022-11-05T16:30:57.582Z,12.54
2022-11-05T16:33:31.865Z,12.47
2022-11-05T16:36:00.506Z,12.41
2022-11-05T16:38:29.514Z,12.34
2022-11-05T16:41:00.634Z,12.29
2022-11-05T16:43:29.840Z,12.26
2022-11-05T16:46:00.374Z,12.24
2022-11-05T16:48:29.003Z,12.23
2022-11-05T16:50:57.653Z,12.24
2022-11-05T16:53:26.382Z,12.25
2022-11-05T16:55:55.234Z,12.29
2022-11-05T16:58:26.810Z,12.32
2022-11-05T17:01:04.062Z,12.34
2022-11-05T17:03:32.140Z,12.40
2022-11-05T17:06:00.612Z,12.42
2022-11-05T17:08:29.956Z,12.39
2022-11-05T17:10:58.242Z,12.37
2022-11-05T17:13:26.455Z,12.37
2022-11-05T17:15:54.540Z,12.37
2022-11-05T17:18:22.745Z,12.34
2022-11-05T17:20:53.935Z,12.32
2022-11-05T17:23:24.218Z,12.28
2022-11-05T17:25:55.464Z,12.25
2022-11-05T17:28:23.969Z,12.22
2022-11-05T17:30:52.973Z,12.18
2022-11-05T17:33:23.330Z,12.15
2022-11-05T17:35:52.640Z,12.11
2022-11-05T17:38:22.503Z,12.07
2022-11-05T17:40:51.581Z,12.05
2022-11-05T17:43:20.776Z,12.03
2022-11-05T17:45:52.187Z,12.03
2022-11-05T17:48:21.664Z,12.03
2022-11-05T17:50:51.296Z,12.04
2022-11-05T17:53:20.493Z,12.07
2022-11-05T17:55:49.384Z,12.10
2022-11-05T17:58:17.920Z,12.11
2022-11-05T18:00:48.983Z,12.15
2022-11-05T18:03:18.923Z,12.19
2022-11-05T18:05:47.868Z,12.22
2022-11-05T18:08:16.501Z,12.22
2022-11-05T18:10:45.550Z,12.24
2022-11-05T18:13:14.534Z,12.25
2022-11-05T18:15:43.969Z,12.23
2022-11-05T18:18:12.610Z,12.21
2022-11-05T18:20:40.801Z,12.19
2022-11-05T18:23:09.005Z,12.15
2022-11-05T18:25:37.156Z,12.10
2022-11-05T18:28:05.631Z,12.04
2022-11-05T18:30:34.487Z,11.95
2022-11-05T18:33:03.155Z,11.88
2022-11-05T18:35:31.409Z,11.82
2022-11-05T18:37:59.736Z,11.77
2022-11-05T18:40:28.191Z,11.72
2022-11-05T18:42:56.648Z,11.68
2022-11-05T18:45:29.524Z,11.65
2022-11-05T18:48:00.418Z,11.65
2022-11-05T18:50:29.852Z,11.68
2022-11-05T18:52:58.554Z,11.69
2022-11-05T18:55:27.019Z,11.78
2022-11-05T18:57:55.419Z,11.82
2022-11-05T19:00:23.928Z,11.84
2022-11-05T19:02:52.633Z,11.83
2022-11-05T19:05:28.908Z,11.79
2022-11-05T19:07:58.580Z,11.78
2022-11-05T19:10:28.083Z,11.77
2022-11-05T19:12:56.504Z,11.75
2022-11-05T19:15:24.727Z,11.70
2022-11-05T19:17:53.230Z,11.66
2022-11-05T19:20:21.797Z,11.62
2022-11-05T19:22:50.270Z,11.57
2022-11-05T19:25:18.505Z,11.54
2022-11-05T19:27:47.227Z,11.50
2022-11-05T19:30:15.854Z,11.48
2022-11-05T19:32:44.343Z,11.46
2022-11-05T19:35:12.630Z,11.46
2022-11-05T19:37:41.149Z,11.47
2022-11-05T19:40:11.417Z,11.47
2022-11-05T19:42:39.730Z,11.45
2022-11-05T19:45:30.437Z,11.44
2022-11-05T19:47:56.814Z,11.43
2022-11-05T19:50:25.628Z,11.44
2022-11-05T19:52:53.944Z,11.44
2022-11-05T19:55:22.613Z,11.43
2022-11-05T19:57:51.442Z,11.39
2022-11-05T20:00:19.652Z,11.37
2022-11-05T20:02:48.026Z,11.35
2022-11-05T20:05:18.330Z,11.32
2022-11-05T20:07:52.547Z,11.28
2022-11-05T20:10:21.929Z,11.24
2022-11-05T20:12:50.683Z,11.18
2022-11-05T20:15:19.882Z,11.13
2022-11-05T20:17:50.575Z,11.10
2022-11-05T20:20:19.562Z,11.03
2022-11-05T20:22:47.943Z,11.00
2022-11-05T20:25:16.138Z,10.99
2022-11-05T20:27:44.372Z,11.02
2022-11-05T20:30:12.894Z,11.06
2022-11-05T20:32:41.064Z,11.10
2022-11-05T20:35:10.554Z,11.11
2022-11-05T20:37:38.716Z,11.11
2022-11-05T20:40:07.233Z,11.12
2022-11-05T20:42:37.024Z,11.16
2022-11-05T20:45:05.670Z,11.17
2022-11-05T20:47:33.592Z,11.16
2022-11-05T20:50:02.267Z,11.11
2022-11-05T20:52:30.655Z,11.06
2022-11-05T20:54:59.220Z,11.06
2022-11-05T20:57:27.616Z,11.02
2022-11-05T20:59:55.800Z,10.96
2022-11-05T21:02:24.327Z,10.91
2022-11-05T21:04:52.535Z,10.86
2022-11-05T21:07:22.327Z,10.78
2022-11-05T21:09:51.720Z,10.70
2022-11-05T21:12:22.602Z,10.64
2022-11-05T21:14:52.523Z,10.60
2022-11-05T21:17:20.835Z,10.56
2022-11-05T21:19:49.171Z,10.52
2022-11-05T21:22:18.205Z,10.50
2022-11-05T21:24:46.494Z,10.51
2022-11-05T21:27:15.328Z,10.54
2022-11-05T21:29:44.010Z,10.54
2022-11-05T21:32:12.494Z,10.51
2022-11-05T21:34:41.050Z,10.50
2022-11-05T21:37:09.382Z,10.50
2022-11-05T21:39:37.564Z,10.48
2022-11-05T21:42:05.763Z,10.44
2022-11-05T21:44:34.366Z,10.39
2022-11-05T21:47:04.710Z,10.31
2022-11-05T21:49:34.664Z,10.21
2022-11-05T21:52:21.373Z,10.12
2022-11-05T21:55:08.053Z,10.01
2022-11-05T21:57:54.856Z,9.89
2022-11-05T22:00:23.819Z,9.81
2022-11-05T22:02:52.396Z,9.74
2022-11-05T22:05:20.855Z,9.69
2022-11-05T22:07:49.822Z,9.63
2022-11-05T22:10:17.967Z,9.58
2022-11-05T22:12:46.495Z,9.54
2022-11-05T22:15:15.041Z,9.51
2022-11-05T22:17:46.875Z,9.48
2022-11-05T22:20:17.065Z,9.47
2022-11-05T22:22:45.564Z,9.44
2022-11-05T22:25:14.886Z,9.43
2022-11-05T22:27:44.202Z,9.42
2022-11-05T22:30:14.135Z,9.40
2022-11-05T22:32:42.276Z,9.38
2022-11-05T22:35:10.723Z,9.35
2022-11-05T22:37:39.060Z,9.27
2022-11-05T22:40:07.771Z,9.22
2022-11-05T22:42:36.484Z,9.15
2022-11-05T22:45:05.139Z,9.06
2022-11-05T22:47:33.599Z,8.98
2022-11-05T22:50:03.102Z,8.89
2022-11-05T22:52:31.295Z,8.82
2022-11-05T22:54:59.588Z,8.75
2022-11-05T22:57:27.638Z,8.70
2022-11-05T22:59:55.746Z,8.65
2022-11-05T23:02:24.250Z,8.62
2022-11-05T23:04:52.561Z,8.60
2022-11-05T23:07:39.213Z,8.58
2022-11-05T23:10:27.927Z,8.57
2022-11-05T23:12:56.166Z,8.53
2022-11-05T23:15:42.977Z,8.51
2022-11-05T23:18:30.175Z,8.50
2022-11-05T23:21:22.700Z,8.50
2022-11-05T23:24:06.592Z,8.50
2022-11-05T23:26:52.802Z,8.50
2022-11-05T23:29:26.870Z,8.50
2022-11-05T23:32:13.840Z,8.49
2022-11-05T23:34:42.147Z,8.48
2022-11-05T23:37:28.942Z,8.46
2022-11-05T23:39:57.150Z,8.43
2022-11-05T23:42:44.006Z,8.39
2022-11-05T23:45:31.430Z,8.35
2022-11-05T23:48:19.253Z,8.28
2022-11-05T23:50:55.967Z,8.21
2022-11-05T23:53:24.601Z,8.15
2022-11-05T23:55:53.159Z,8.10
2022-11-05T23:58:21.736Z,8.05
